createdAt,value
2022-08-18T00:00:00.503Z,12.30
2022-08-18T00:01:00.700Z,16.30
2022-08-18T00:02:00.906Z,12.90
2022-08-18T00:03:14.206Z,15.70
2022-08-18T00:04:03.075Z,11.80
2022-08-18T00:05:01.090Z,10.90
2022-08-18T00:06:01.193Z,11.60
2022-08-18T00:07:01.323Z,14.50
2022-08-18T00:08:01.455Z,19.70
2022-08-18T00:09:01.574Z,10.70
2022-08-18T00:10:01.712Z,13.00
2022-08-18T00:11:01.828Z,11.60
2022-08-18T00:12:01.944Z,14.70
2022-08-18T00:13:02.073Z,12.20
2022-08-18T00:14:02.182Z,11.00
2022-08-18T00:15:02.291Z,12.20
2022-08-18T00:16:02.402Z,14.70
2022-08-18T00:17:02.518Z,14.80
2022-08-18T00:18:02.641Z,13.50
2022-08-18T00:19:07.099Z,12.70
2022-08-18T00:20:03.844Z,11.90
2022-08-18T00:21:02.962Z,12.80
2022-08-18T00:22:03.082Z,15.70
2022-08-18T00:23:03.211Z,14.40
2022-08-18T00:24:03.322Z,13.00
2022-08-18T00:25:03.440Z,15.10
2022-08-18T00:26:03.552Z,12.20
2022-08-18T00:27:03.688Z,12.00
2022-08-18T00:28:03.807Z,11.40
2022-08-18T00:29:03.923Z,10.40
2022-08-18T00:30:04.042Z,10.20
2022-08-18T00:31:04.165Z,14.40
2022-08-18T00:32:04.269Z,17.20
2022-08-18T00:33:04.390Z,14.10
2022-08-18T00:34:04.502Z,15.40
2022-08-18T00:35:04.612Z,14.40
2022-08-18T00:36:04.725Z,13.80
2022-08-18T00:37:04.852Z,13.00
2022-08-18T00:38:04.973Z,12.30
2022-08-18T00:39:05.088Z,11.80
2022-08-18T00:40:05.281Z,13.50
2022-08-18T00:41:05.273Z,13.90
2022-08-18T00:42:05.399Z,9.50
2022-08-18T00:43:05.521Z,11.30
2022-08-18T00:44:05.632Z,13.80
2022-08-18T00:45:05.782Z,14.90
2022-08-18T00:46:05.893Z,11.30
2022-08-18T00:47:06.005Z,13.70
2022-08-18T00:48:06.137Z,15.00
2022-08-18T00:49:06.265Z,10.50
2022-08-18T00:50:06.384Z,14.30
2022-08-18T00:51:07.448Z,13.90
2022-08-18T00:52:06.561Z,14.10
2022-08-18T00:53:06.690Z,10.60
2022-08-18T00:54:06.801Z,14.90
2022-08-18T00:55:06.912Z,15.10
2022-08-18T00:56:07.021Z,14.10
2022-08-18T00:57:07.136Z,16.70
2022-08-18T00:58:07.276Z,12.40
2022-08-18T00:59:07.377Z,14.30
2022-08-18T01:00:07.508Z,12.30
2022-08-18T01:01:07.723Z,18.60
2022-08-18T01:02:07.727Z,12.80
2022-08-18T01:03:07.914Z,13.90
2022-08-18T01:04:08.034Z,15.30
2022-08-18T01:05:08.161Z,13.30
2022-08-18T01:06:08.272Z,13.90
2022-08-18T01:07:08.386Z,12.10
2022-08-18T01:08:08.521Z,15.60
2022-08-18T01:09:08.651Z,11.00
2022-08-18T01:10:08.760Z,9.40
2022-08-18T01:11:08.886Z,13.20
2022-08-18T01:12:39.428Z,16.80
2022-08-18T01:13:10.085Z,13.40
2022-08-18T01:14:09.196Z,14.30
2022-08-18T01:15:09.321Z,13.80
2022-08-18T01:16:10.379Z,12.70
2022-08-18T01:17:09.483Z,12.80
2022-08-18T01:18:09.618Z,12.20
2022-08-18T01:19:09.737Z,11.50
2022-08-18T01:20:09.855Z,14.90
2022-08-18T01:21:09.959Z,12.60
2022-08-18T01:22:10.083Z,12.90
2022-08-18T01:23:10.221Z,11.30
2022-08-18T01:24:10.334Z,18.10
2022-08-18T01:25:10.450Z,12.90
2022-08-18T01:26:10.572Z,14.10
2022-08-18T01:27:10.680Z,17.90
2022-08-18T01:28:10.811Z,13.90
2022-08-18T01:29:10.933Z,12.50
2022-08-18T01:30:11.009Z,13.80
2022-08-18T01:31:11.122Z,10.50
2022-08-18T01:32:11.234Z,12.10
2022-08-18T01:33:11.362Z,16.00
2022-08-18T01:34:11.426Z,16.00
2022-08-18T01:35:11.532Z,12.50
2022-08-18T01:36:11.691Z,14.70
2022-08-18T01:37:11.802Z,12.30
2022-08-18T01:38:11.940Z,16.50
2022-08-18T01:39:12.052Z,16.20
2022-08-18T01:41:17.421Z,14.40
2022-08-18T01:41:27.176Z,13.50
2022-08-18T01:42:13.401Z,12.20
2022-08-18T01:43:12.483Z,15.30
2022-08-18T01:44:12.600Z,16.70
2022-08-18T01:45:12.771Z,11.70
2022-08-18T01:46:12.765Z,14.80
2022-08-18T01:47:12.886Z,12.50
2022-08-18T01:48:12.996Z,14.10
2022-08-18T01:49:13.122Z,13.60
2022-08-18T01:50:13.252Z,16.80
2022-08-18T01:51:13.414Z,13.50
2022-08-18T01:52:13.528Z,11.50
2022-08-18T01:53:13.650Z,12.90
2022-08-18T01:54:13.806Z,13.90
2022-08-18T01:55:14.774Z,12.60
2022-08-18T01:56:13.993Z,16.60
2022-08-18T01:57:14.111Z,18.30
2022-08-18T01:58:14.236Z,15.00
2022-08-18T01:59:14.363Z,16.00
2022-08-18T02:00:14.488Z,14.00
2022-08-18T02:01:14.671Z,14.80
2022-08-18T02:02:18.241Z,16.70
2022-08-18T02:03:14.801Z,15.50
2022-08-18T02:04:34.414Z,14.20
2022-08-18T02:05:15.991Z,12.90
2022-08-18T02:06:15.110Z,13.10
2022-08-18T02:07:15.300Z,16.80
2022-08-18T02:08:15.389Z,13.00
2022-08-18T02:09:15.482Z,12.30
2022-08-18T02:10:16.774Z,15.70
2022-08-18T02:11:15.681Z,12.80
2022-08-18T02:12:15.845Z,13.20
2022-08-18T02:13:15.970Z,13.50
2022-08-18T02:14:16.094Z,16.50
2022-08-18T02:15:16.229Z,15.70
2022-08-18T02:16:16.340Z,16.30
2022-08-18T02:17:16.568Z,14.90
2022-08-18T02:18:39.261Z,15.40
2022-08-18T02:19:17.603Z,17.10
2022-08-18T02:20:16.736Z,13.90
2022-08-18T02:21:19.002Z,15.20
2022-08-18T02:22:18.070Z,14.20
2022-08-18T02:23:17.202Z,14.30
2022-08-18T02:24:17.313Z,11.10
2022-08-18T02:25:17.480Z,16.10
2022-08-18T02:26:17.596Z,13.80
2022-08-18T02:27:17.768Z,11.30
2022-08-18T02:28:17.883Z,15.10
2022-08-18T02:29:18.010Z,15.60
2022-08-18T02:30:18.139Z,12.20
2022-08-18T02:31:18.254Z,13.10
2022-08-18T02:32:18.380Z,14.00
2022-08-18T02:33:18.499Z,16.10
2022-08-18T02:34:18.640Z,16.20
2022-08-18T02:35:18.758Z,14.80
2022-08-18T02:36:18.870Z,13.40
2022-08-18T02:37:19.001Z,12.90
2022-08-18T02:38:19.114Z,13.90
2022-08-18T02:39:19.247Z,15.70
2022-08-18T02:40:19.454Z,14.30
2022-08-18T02:41:19.531Z,10.90
2022-08-18T02:42:19.650Z,14.00
2022-08-18T02:43:19.782Z,13.30
2022-08-18T02:44:19.856Z,13.00
2022-08-18T02:45:20.011Z,12.10
2022-08-18T02:46:20.134Z,13.60
2022-08-18T02:47:20.221Z,14.00
2022-08-18T02:48:21.292Z,15.20
2022-08-18T02:49:20.479Z,14.40
2022-08-18T02:50:20.621Z,14.90
2022-08-18T02:51:20.744Z,15.80
2022-08-18T02:52:21.828Z,15.80
2022-08-18T02:53:21.079Z,16.60
2022-08-18T02:54:21.097Z,13.30
2022-08-18T02:55:21.234Z,12.90
2022-08-18T02:56:40.287Z,14.90
2022-08-18T02:57:22.437Z,15.70
2022-08-18T02:58:21.555Z,17.90
2022-08-18T02:59:21.715Z,16.60
2022-08-18T03:00:21.881Z,14.10
2022-08-18T03:01:22.055Z,21.60
2022-08-18T03:02:22.169Z,15.20
2022-08-18T03:03:22.302Z,16.60
2022-08-18T03:04:28.168Z,17.60
2022-08-18T03:05:23.595Z,14.40
2022-08-18T03:06:22.592Z,17.20
2022-08-18T03:07:22.717Z,15.40
2022-08-18T03:08:22.832Z,14.00
2022-08-18T03:09:22.940Z,13.60
2022-08-18T03:10:31.436Z,16.30
2022-08-18T03:11:24.144Z,14.30
2022-08-18T03:12:23.260Z,20.10
2022-08-18T03:13:23.399Z,14.80
2022-08-18T03:14:23.516Z,16.80
2022-08-18T03:15:23.638Z,15.30
2022-08-18T03:16:23.824Z,16.20
2022-08-18T03:17:23.961Z,15.20
2022-08-18T03:18:24.208Z,14.40
2022-08-18T03:19:24.245Z,15.40
2022-08-18T03:20:30.166Z,15.30
2022-08-18T03:21:25.480Z,16.00
2022-08-18T03:22:28.033Z,12.50
2022-08-18T03:23:30.356Z,20.30
2022-08-18T03:24:24.818Z,15.00
2022-08-18T03:25:24.934Z,15.10
2022-08-18T03:26:25.060Z,15.60
2022-08-18T03:27:25.189Z,13.20
2022-08-18T03:28:25.584Z,14.60
2022-08-18T03:29:29.561Z,17.80
2022-08-18T03:30:26.518Z,16.30
2022-08-18T03:31:27.921Z,14.80
2022-08-18T03:32:25.790Z,17.20
2022-08-18T03:33:25.929Z,16.10
2022-08-18T03:34:26.101Z,19.10
2022-08-18T03:35:26.229Z,15.10
2022-08-18T03:36:26.365Z,17.80
2022-08-18T03:37:26.508Z,17.10
2022-08-18T03:38:26.627Z,15.70
2022-08-18T03:39:26.823Z,17.40
2022-08-18T03:40:26.933Z,16.00
2022-08-18T03:41:57.655Z,15.00
2022-08-18T03:42:28.160Z,14.30
2022-08-18T03:43:50.693Z,15.00
2022-08-18T03:44:28.368Z,17.10
2022-08-18T03:45:27.493Z,16.70
2022-08-18T03:46:27.615Z,17.00
2022-08-18T03:47:27.697Z,18.30
2022-08-18T03:48:27.827Z,16.90
2022-08-18T03:49:27.975Z,18.40
2022-08-18T03:50:28.078Z,13.50
2022-08-18T03:51:35.220Z,14.10
2022-08-18T03:52:30.018Z,15.40
2022-08-18T03:53:28.498Z,16.90
2022-08-18T03:54:28.640Z,14.00
2022-08-18T03:55:28.762Z,21.30
2022-08-18T03:56:28.886Z,16.50
2022-08-18T03:57:29.005Z,17.70
2022-08-18T03:58:29.108Z,14.30
2022-08-18T03:59:29.230Z,17.20
2022-08-18T04:00:29.412Z,17.50
2022-08-18T04:01:29.552Z,15.90
2022-08-18T04:02:29.595Z,19.70
2022-08-18T04:03:29.750Z,13.40
2022-08-18T04:04:29.869Z,15.60
2022-08-18T04:05:30.008Z,19.90
2022-08-18T04:06:30.645Z,14.20
2022-08-18T04:07:30.230Z,14.70
2022-08-18T04:08:30.380Z,13.10
2022-08-18T04:09:30.501Z,16.30
2022-08-18T04:10:30.646Z,21.30
2022-08-18T04:11:35.663Z,14.50
2022-08-18T04:12:31.871Z,18.00
2022-08-18T04:13:31.019Z,16.00
2022-08-18T04:14:31.141Z,17.50
2022-08-18T04:15:31.266Z,17.30
2022-08-18T04:16:31.410Z,16.40
2022-08-18T04:17:31.537Z,16.60
2022-08-18T04:18:31.678Z,18.30
2022-08-18T04:19:31.809Z,14.70
2022-08-18T04:20:31.947Z,15.50
2022-08-18T04:21:32.072Z,18.30
2022-08-18T04:22:32.191Z,13.80
2022-08-18T04:23:33.106Z,14.80
2022-08-18T04:24:33.597Z,16.90
2022-08-18T04:25:33.120Z,17.70
2022-08-18T04:26:32.738Z,16.60
2022-08-18T04:27:32.874Z,19.10
2022-08-18T04:28:33.037Z,15.50
2022-08-18T04:29:33.158Z,16.10
2022-08-18T04:30:33.288Z,14.40
2022-08-18T04:31:33.414Z,16.40
2022-08-18T04:32:33.545Z,14.40
2022-08-18T04:33:33.681Z,18.60
2022-08-18T04:34:33.821Z,18.00
2022-08-18T04:35:33.936Z,17.90
2022-08-18T04:36:34.067Z,14.90
2022-08-18T04:37:39.760Z,16.10
2022-08-18T04:38:35.276Z,16.40
2022-08-18T04:39:34.467Z,15.70
2022-08-18T04:40:34.490Z,13.40
2022-08-18T04:41:34.617Z,19.90
2022-08-18T04:42:34.759Z,19.20
2022-08-18T04:43:35.856Z,17.60
2022-08-18T04:44:34.979Z,16.00
2022-08-18T04:45:35.102Z,19.50
2022-08-18T04:46:35.238Z,18.90
2022-08-18T04:47:35.366Z,19.60
2022-08-18T04:48:35.498Z,15.10
2022-08-18T04:49:35.637Z,18.40
2022-08-18T04:50:35.767Z,21.50
2022-08-18T04:52:36.670Z,18.60
2022-08-18T04:52:41.252Z,18.00
2022-08-18T04:53:36.126Z,17.20
2022-08-18T04:54:36.323Z,20.30
2022-08-18T04:55:36.428Z,18.00
2022-08-18T04:56:36.549Z,19.20
2022-08-18T04:57:36.687Z,18.90
2022-08-18T04:58:36.814Z,18.70
2022-08-18T04:59:36.957Z,17.50
2022-08-18T05:00:37.077Z,22.40
2022-08-18T05:01:37.241Z,17.20
2022-08-18T05:02:37.259Z,17.50
2022-08-18T05:03:37.380Z,17.10
2022-08-18T05:04:38.469Z,22.10
2022-08-18T05:05:37.595Z,17.50
2022-08-18T05:06:37.721Z,16.90
2022-08-18T05:07:37.837Z,20.00
2022-08-18T05:08:37.967Z,16.70
2022-08-18T05:09:41.320Z,18.30
2022-08-18T05:10:38.217Z,17.20
2022-08-18T05:11:38.341Z,19.50
2022-08-18T05:12:38.457Z,21.50
2022-08-18T05:13:38.984Z,18.90
2022-08-18T05:14:38.714Z,20.50
2022-08-18T05:16:06.941Z,19.90
2022-08-18T05:16:48.298Z,15.30
2022-08-18T05:17:40.093Z,17.90
2022-08-18T05:18:39.254Z,19.70
2022-08-18T05:19:44.182Z,20.40
2022-08-18T05:20:40.450Z,19.60
2022-08-18T05:21:39.557Z,15.80
2022-08-18T05:22:39.681Z,19.50
2022-08-18T05:23:39.794Z,21.60
2022-08-18T05:24:39.941Z,15.80
2022-08-18T05:25:40.050Z,16.30
2022-08-18T05:26:40.166Z,20.70
2022-08-18T05:27:40.285Z,21.10
2022-08-18T05:28:40.395Z,18.30
2022-08-18T05:29:41.566Z,18.20
2022-08-18T05:30:41.608Z,16.60
2022-08-18T05:31:40.709Z,20.60
2022-08-18T05:32:48.520Z,23.20
2022-08-18T05:33:41.897Z,18.70
2022-08-18T05:34:41.013Z,18.20
2022-08-18T05:35:41.187Z,20.50
2022-08-18T05:36:41.184Z,25.30
2022-08-18T05:37:41.295Z,22.00
2022-08-18T05:38:41.408Z,16.50
2022-08-18T05:39:41.558Z,19.20
2022-08-18T05:40:41.666Z,19.80
2022-08-18T05:41:41.779Z,20.70
2022-08-18T05:42:41.921Z,18.30
2022-08-18T05:43:52.186Z,24.80
2022-08-18T05:44:43.096Z,17.00
2022-08-18T05:45:42.226Z,16.60
2022-08-18T05:46:42.341Z,23.10
2022-08-18T05:47:42.467Z,18.30
2022-08-18T05:48:43.217Z,20.10
2022-08-18T05:49:42.679Z,20.50
2022-08-18T05:50:42.799Z,18.00
2022-08-18T05:51:42.911Z,21.30
2022-08-18T05:52:43.016Z,21.50
2022-08-18T05:53:43.116Z,19.00
2022-08-18T05:54:43.224Z,20.20
2022-08-18T05:55:47.629Z,21.00
2022-08-18T05:56:43.487Z,19.90
2022-08-18T05:57:43.601Z,23.50
2022-08-18T05:58:43.705Z,19.30
2022-08-18T05:59:43.813Z,22.70
2022-08-18T06:00:43.885Z,19.40
2022-08-18T06:01:44.046Z,18.10
2022-08-18T06:02:44.185Z,18.10
2022-08-18T06:03:45.179Z,18.00
2022-08-18T06:04:44.345Z,22.90
2022-08-18T06:05:44.479Z,19.30
2022-08-18T06:06:47.666Z,18.10
2022-08-18T06:07:44.815Z,15.20
2022-08-18T06:08:44.837Z,15.30
2022-08-18T06:09:44.978Z,16.90
2022-08-18T06:10:45.089Z,21.10
2022-08-18T06:11:45.200Z,17.60
2022-08-18T06:12:47.269Z,14.30
2022-08-18T06:13:45.425Z,22.10
2022-08-18T06:14:45.573Z,19.40
2022-08-18T06:15:45.671Z,16.30
2022-08-18T06:16:45.837Z,18.60
2022-08-18T06:17:46.724Z,18.40
2022-08-18T06:18:46.075Z,24.60
2022-08-18T06:19:46.210Z,23.10
2022-08-18T06:20:46.326Z,15.20
2022-08-18T06:21:46.457Z,18.50
2022-08-18T06:22:52.399Z,21.20
2022-08-18T06:23:47.650Z,16.60
2022-08-18T06:24:46.800Z,19.70
2022-08-18T06:25:46.924Z,16.70
2022-08-18T06:26:47.036Z,17.80
2022-08-18T06:27:47.177Z,17.50
2022-08-18T06:28:47.199Z,17.20
2022-08-18T06:29:47.338Z,17.10
2022-08-18T06:30:47.480Z,14.40
2022-08-18T06:31:47.598Z,17.00
2022-08-18T06:32:47.708Z,18.20
2022-08-18T06:33:47.822Z,18.70
2022-08-18T06:34:47.974Z,20.80
2022-08-18T06:35:48.512Z,22.40
2022-08-18T06:36:48.098Z,18.70
2022-08-18T06:37:48.265Z,21.40
2022-08-18T06:38:48.262Z,17.70
2022-08-18T06:39:48.445Z,18.60
2022-08-18T06:40:48.434Z,20.80
2022-08-18T06:41:48.528Z,17.60
2022-08-18T06:42:48.639Z,17.10
2022-08-18T06:43:48.775Z,19.00
2022-08-18T06:44:48.873Z,21.50
2022-08-18T06:45:48.975Z,19.30
2022-08-18T06:46:49.068Z,18.30
2022-08-18T06:47:49.161Z,16.60
2022-08-18T06:48:49.287Z,22.10
2022-08-18T06:49:49.386Z,20.50
2022-08-18T06:50:49.532Z,19.00
2022-08-18T06:51:49.631Z,21.30
2022-08-18T06:52:49.710Z,19.60
2022-08-18T06:53:49.815Z,19.60
2022-08-18T06:54:51.570Z,18.10
2022-08-18T06:55:49.967Z,18.70
2022-08-18T06:56:50.093Z,22.20
2022-08-18T06:57:50.291Z,20.00
2022-08-18T06:58:53.186Z,18.10
2022-08-18T06:59:50.341Z,18.60
2022-08-18T07:00:50.568Z,18.90
2022-08-18T07:01:50.556Z,14.10
2022-08-18T07:02:50.658Z,23.50
2022-08-18T07:03:50.896Z,21.70
2022-08-18T07:04:50.855Z,16.50
2022-08-18T07:05:50.969Z,18.40
2022-08-18T07:06:51.066Z,26.80
2022-08-18T07:07:51.222Z,20.10
2022-08-18T07:08:51.312Z,22.20
2022-08-18T07:09:51.397Z,20.70
2022-08-18T07:10:51.578Z,16.50
2022-08-18T07:11:51.595Z,21.00
2022-08-18T07:12:51.755Z,18.50
2022-08-18T07:14:03.600Z,18.90
2022-08-18T07:14:52.801Z,17.50
2022-08-18T07:15:51.946Z,22.30
2022-08-18T07:17:00.106Z,21.20
2022-08-18T07:17:53.144Z,22.70
2022-08-18T07:18:52.049Z,19.30
2022-08-18T07:19:52.175Z,17.80
2022-08-18T07:20:52.306Z,20.60
2022-08-18T07:21:52.412Z,21.10
2022-08-18T07:22:52.533Z,17.50
2022-08-18T07:24:14.202Z,21.10
2022-08-18T07:24:53.660Z,20.80
2022-08-18T07:25:52.811Z,20.30
2022-08-18T07:26:52.809Z,22.20
2022-08-18T07:27:53.236Z,20.20
2022-08-18T07:28:52.931Z,15.60
2022-08-18T07:29:53.026Z,19.40
2022-08-18T07:31:15.557Z,20.30
2022-08-18T07:31:54.179Z,20.30
2022-08-18T07:32:53.292Z,22.20
2022-08-18T07:33:53.415Z,19.10
2022-08-18T07:34:53.607Z,16.90
2022-08-18T07:35:53.668Z,19.90
2022-08-18T07:36:53.640Z,18.10
2022-08-18T07:37:53.832Z,16.00
2022-08-18T07:38:53.855Z,19.60
2022-08-18T07:39:54.003Z,21.30
2022-08-18T07:40:54.036Z,19.20
2022-08-18T07:41:54.123Z,16.60
2022-08-18T07:43:02.100Z,21.60
2022-08-18T07:43:55.284Z,14.50
2022-08-18T07:44:54.383Z,20.60
2022-08-18T07:45:54.520Z,22.40
2022-08-18T07:46:54.604Z,21.30
2022-08-18T07:47:54.776Z,17.80
2022-08-18T07:48:54.736Z,24.90
2022-08-18T07:50:18.259Z,18.30
2022-08-18T07:50:58.283Z,15.70
2022-08-18T07:51:55.035Z,18.80
2022-08-18T07:52:55.128Z,20.70
2022-08-18T07:53:56.540Z,22.80
2022-08-18T07:54:55.286Z,19.20
2022-08-18T07:55:55.405Z,23.80
2022-08-18T07:56:55.486Z,20.30
2022-08-18T07:57:55.775Z,21.20
2022-08-18T07:58:55.634Z,19.10
2022-08-18T07:59:55.744Z,23.30
2022-08-18T08:00:59.124Z,22.30
2022-08-18T08:01:55.962Z,22.00
2022-08-18T08:02:55.941Z,20.30
2022-08-18T08:03:56.069Z,22.90
2022-08-18T08:04:56.154Z,20.30
2022-08-18T08:05:56.240Z,25.40
2022-08-18T08:07:23.036Z,18.30
2022-08-18T08:07:57.397Z,17.90
2022-08-18T08:08:56.496Z,20.70
2022-08-18T08:09:56.591Z,27.20
2022-08-18T08:10:56.701Z,21.80
2022-08-18T08:11:56.716Z,18.20
2022-08-18T08:13:08.359Z,19.50
2022-08-18T08:13:57.891Z,24.40
2022-08-18T08:14:56.965Z,19.90
2022-08-18T08:15:57.067Z,22.20
2022-08-18T08:16:57.179Z,20.80
2022-08-18T08:17:57.261Z,20.00
2022-08-18T08:18:57.362Z,18.80
2022-08-18T08:20:00.645Z,16.60
2022-08-18T08:20:57.538Z,19.00
2022-08-18T08:21:57.652Z,19.00
2022-08-18T08:22:57.766Z,21.40
2022-08-18T08:23:57.834Z,18.90
2022-08-18T08:24:57.933Z,22.30
2022-08-18T08:25:58.041Z,18.20
2022-08-18T08:26:58.202Z,18.60
2022-08-18T08:27:58.146Z,24.50
2022-08-18T08:28:58.180Z,23.40
2022-08-18T08:29:58.290Z,21.80
2022-08-18T08:31:13.552Z,18.50
2022-08-18T08:31:59.438Z,19.20
2022-08-18T08:32:58.623Z,21.30
2022-08-18T08:34:01.668Z,18.20
2022-08-18T08:34:59.647Z,20.20
2022-08-18T08:35:58.738Z,21.40
2022-08-18T08:36:58.836Z,20.20
2022-08-18T08:38:04.808Z,19.00
2022-08-18T08:38:59.948Z,20.10
2022-08-18T08:39:59.141Z,19.90
2022-08-18T08:40:59.159Z,19.30
2022-08-18T08:42:30.264Z,28.30
2022-08-18T08:43:00.308Z,21.50
2022-08-18T08:43:59.436Z,18.50
2022-08-18T08:44:59.995Z,17.00
2022-08-18T08:45:59.501Z,17.50
2022-08-18T08:46:59.457Z,21.80
2022-08-18T08:48:08.098Z,22.50
2022-08-18T08:49:00.605Z,16.70
2022-08-18T08:50:01.046Z,17.30
2022-08-18T08:50:59.699Z,23.80
2022-08-18T08:51:59.787Z,21.50
2022-08-18T08:52:59.863Z,19.00
2022-08-18T08:53:59.966Z,20.50
2022-08-18T08:55:00.028Z,24.90
2022-08-18T08:56:02.458Z,19.30
2022-08-18T08:57:00.200Z,17.40
2022-08-18T08:58:00.151Z,20.00
2022-08-18T08:59:00.261Z,20.40
2022-08-18T09:00:00.243Z,20.70
2022-08-18T09:01:00.370Z,19.50
2022-08-18T09:02:00.550Z,19.70
2022-08-18T09:03:00.598Z,23.60
2022-08-18T09:04:00.461Z,25.00
2022-08-18T09:05:08.418Z,19.30
2022-08-18T09:06:01.514Z,20.00
2022-08-18T09:07:00.699Z,18.70
2022-08-18T09:08:00.635Z,24.80
2022-08-18T09:09:00.631Z,22.00
2022-08-18T09:10:00.630Z,19.30
2022-08-18T09:11:00.732Z,16.30
2022-08-18T09:12:00.685Z,23.00
2022-08-18T09:13:00.761Z,20.80
2022-08-18T09:14:00.864Z,18.80
2022-08-18T09:15:01.068Z,15.30
2022-08-18T09:16:01.097Z,23.60
2022-08-18T09:17:02.117Z,18.50
2022-08-18T09:18:01.086Z,18.70
2022-08-18T09:19:01.015Z,21.30
2022-08-18T09:20:01.234Z,24.10
2022-08-18T09:21:01.019Z,25.00
2022-08-18T09:22:01.053Z,22.20
2022-08-18T09:23:01.165Z,23.10
2022-08-18T09:24:01.064Z,21.60
2022-08-18T09:25:01.099Z,21.10
2022-08-18T09:26:01.114Z,24.30
2022-08-18T09:27:01.134Z,29.10
2022-08-18T09:28:10.985Z,20.60
2022-08-18T09:29:02.129Z,19.70
2022-08-18T09:30:01.209Z,22.90
2022-08-18T09:31:01.125Z,19.70
2022-08-18T09:32:01.083Z,24.70
2022-08-18T09:33:01.107Z,23.00
2022-08-18T09:34:06.728Z,29.20
2022-08-18T09:35:02.116Z,18.90
2022-08-18T09:36:01.100Z,21.60
2022-08-18T09:37:00.977Z,18.90
2022-08-18T09:38:01.015Z,20.40
2022-08-18T09:39:01.047Z,21.00
2022-08-18T09:40:11.070Z,20.00
2022-08-18T09:41:03.453Z,23.20
2022-08-18T09:42:00.994Z,23.50
2022-08-18T09:43:02.141Z,27.70
2022-08-18T09:44:00.936Z,20.40
2022-08-18T09:45:00.911Z,21.20
2022-08-18T09:46:00.985Z,18.60
2022-08-18T09:47:01.357Z,23.60
2022-08-18T09:48:00.870Z,19.90
2022-08-18T09:49:00.856Z,24.20
2022-08-18T09:50:01.829Z,19.40
2022-08-18T09:51:00.798Z,27.20
2022-08-18T09:52:08.765Z,22.60
2022-08-18T09:53:04.700Z,20.20
2022-08-18T09:54:00.740Z,17.00
2022-08-18T09:55:01.501Z,22.00
2022-08-18T09:56:04.829Z,24.60
2022-08-18T09:57:00.718Z,19.50
2022-08-18T09:58:00.741Z,21.80
2022-08-18T09:59:00.709Z,16.60
2022-08-18T10:00:00.711Z,23.60
2022-08-18T10:01:00.778Z,17.10
2022-08-18T10:02:00.668Z,20.30
2022-08-18T10:03:00.709Z,20.30
2022-08-18T10:04:00.700Z,23.80
2022-08-18T10:05:00.738Z,19.60
2022-08-18T10:06:01.712Z,25.80
2022-08-18T10:07:00.670Z,21.70
2022-08-18T10:08:00.666Z,30.40
2022-08-18T10:09:00.662Z,22.50
2022-08-18T10:10:00.814Z,32.60
2022-08-18T10:12:01.488Z,24.10
2022-08-18T10:13:00.482Z,24.90
2022-08-18T10:14:00.480Z,22.50
2022-08-18T10:15:00.403Z,56.70
2022-08-18T10:16:10.243Z,37.20
2022-08-18T10:17:23.703Z,29.70
2022-08-18T10:18:01.277Z,24.80
2022-08-18T10:19:00.266Z,25.30
2022-08-18T10:20:00.171Z,23.50
2022-08-18T10:21:00.076Z,24.50
2022-08-18T10:22:00.023Z,30.70
2022-08-18T10:23:00.021Z,23.90
2022-08-18T10:24:29.782Z,25.50
2022-08-18T10:25:20.863Z,23.80
2022-08-18T10:26:04.441Z,22.40
2022-08-18T10:26:59.890Z,26.60
2022-08-18T10:27:59.902Z,23.80
2022-08-18T10:28:59.903Z,21.70
2022-08-18T10:29:59.922Z,20.20
2022-08-18T10:31:05.879Z,21.70
2022-08-18T10:32:00.924Z,18.30
2022-08-18T10:33:00.333Z,19.40
2022-08-18T10:33:59.833Z,25.90
2022-08-18T10:34:59.815Z,23.90
2022-08-18T10:35:59.792Z,23.80
2022-08-18T10:36:59.764Z,18.60
2022-08-18T10:37:59.747Z,16.40
2022-08-18T10:38:59.713Z,21.00
2022-08-18T10:39:59.743Z,24.30
2022-08-18T10:40:59.634Z,23.50
2022-08-18T10:42:00.546Z,21.50
2022-08-18T10:42:59.492Z,21.10
2022-08-18T10:43:59.507Z,23.70
2022-08-18T10:44:59.455Z,20.00
2022-08-18T10:46:25.437Z,19.10
2022-08-18T10:47:00.310Z,16.90
2022-08-18T10:47:59.243Z,17.60
2022-08-18T10:48:59.162Z,21.30
2022-08-18T10:49:59.103Z,21.20
2022-08-18T10:50:59.045Z,20.50
2022-08-18T10:52:00.371Z,24.80
2022-08-18T10:53:24.470Z,22.00
2022-08-18T10:53:59.732Z,24.50
2022-08-18T10:54:58.599Z,28.40
2022-08-18T10:55:58.577Z,19.20
2022-08-18T10:56:58.472Z,23.50
2022-08-18T10:57:58.388Z,19.20
2022-08-18T10:58:58.334Z,16.80
2022-08-18T10:59:58.276Z,20.40
2022-08-18T11:00:58.234Z,23.20
2022-08-18T11:01:58.164Z,22.10
2022-08-18T11:03:02.569Z,20.10
2022-08-18T11:03:59.100Z,17.60
2022-08-18T11:04:59.098Z,25.30
2022-08-18T11:05:57.786Z,20.90
2022-08-18T11:06:57.645Z,20.80
2022-08-18T11:08:58.453Z,22.20
2022-08-18T11:10:04.888Z,19.40
2022-08-18T11:11:27.546Z,19.80
2022-08-18T11:12:00.842Z,18.70
2022-08-18T11:12:57.452Z,21.00
2022-08-18T11:13:57.009Z,17.30
2022-08-18T11:14:56.864Z,17.20
2022-08-18T11:15:56.758Z,20.10
2022-08-18T11:16:56.764Z,22.90
2022-08-18T11:17:56.603Z,18.10
2022-08-18T11:18:56.475Z,14.10
2022-08-18T11:19:56.426Z,19.20
2022-08-18T11:20:56.261Z,15.00
2022-08-18T11:21:56.260Z,22.20
2022-08-18T11:23:57.030Z,21.90
2022-08-18T11:24:55.920Z,18.10
2022-08-18T11:25:55.906Z,16.60
2022-08-18T11:26:55.814Z,18.80
2022-08-18T11:27:55.789Z,21.30
2022-08-18T11:28:55.784Z,15.50
2022-08-18T11:29:55.517Z,18.30
2022-08-18T11:30:55.463Z,18.50
2022-08-18T11:31:55.416Z,21.10
2022-08-18T11:32:55.585Z,18.20
2022-08-18T11:33:55.269Z,23.20
2022-08-18T11:34:55.215Z,19.20
2022-08-18T11:35:55.147Z,22.60
2022-08-18T11:36:55.111Z,21.00
2022-08-18T11:37:54.961Z,20.30
2022-08-18T11:38:54.802Z,22.80
2022-08-18T11:39:54.803Z,31.80
2022-08-18T11:41:11.549Z,28.00
2022-08-18T11:41:55.654Z,26.90
2022-08-18T11:42:54.713Z,25.80
2022-08-18T11:43:54.353Z,24.20
2022-08-18T11:44:54.304Z,20.30
2022-08-18T11:45:54.240Z,20.10
2022-08-18T11:46:54.190Z,17.90
2022-08-18T11:47:54.064Z,17.50
2022-08-18T11:48:54.140Z,16.80
2022-08-18T11:49:53.982Z,20.20
2022-08-18T11:50:54.419Z,31.50
2022-08-18T11:51:53.889Z,22.20
2022-08-18T11:52:54.572Z,24.10
2022-08-18T11:53:58.280Z,26.00
2022-08-18T11:54:54.611Z,19.30
2022-08-18T11:55:53.520Z,21.20
2022-08-18T11:56:53.669Z,17.00
2022-08-18T11:57:53.369Z,19.10
2022-08-18T11:58:53.324Z,19.10
2022-08-18T12:00:00.618Z,18.60
2022-08-18T12:00:54.057Z,21.50
2022-08-18T12:01:52.992Z,25.30
2022-08-18T12:02:53.047Z,14.80
2022-08-18T12:03:52.869Z,20.70
2022-08-18T12:04:53.034Z,20.90
2022-08-18T12:06:53.609Z,19.30
2022-08-18T12:07:57.818Z,24.80
2022-08-18T12:10:53.339Z,23.30
2022-08-18T12:11:52.311Z,18.90
2022-08-18T12:12:52.899Z,34.90
2022-08-18T12:13:52.266Z,21.40
2022-08-18T12:14:52.276Z,24.30
2022-08-18T12:15:52.159Z,20.60
2022-08-18T12:16:54.091Z,13.90
2022-08-18T12:17:53.050Z,14.30
2022-08-18T12:18:52.022Z,15.10
2022-08-18T12:19:51.926Z,22.10
2022-08-18T12:20:51.796Z,14.90
2022-08-18T12:21:51.667Z,19.60
2022-08-18T12:22:52.150Z,19.20
2022-08-18T12:23:52.290Z,15.90
2022-08-18T12:24:51.475Z,15.60
2022-08-18T12:25:51.608Z,23.00
2022-08-18T12:26:52.159Z,19.20
2022-08-18T12:27:51.328Z,13.00
2022-08-18T12:28:51.294Z,13.10
2022-08-18T12:29:51.274Z,19.10
2022-08-18T12:30:56.329Z,15.80
2022-08-18T12:31:52.193Z,11.80
2022-08-18T12:33:00.729Z,15.30
2022-08-18T12:34:00.663Z,14.50
2022-08-18T12:34:51.976Z,13.20
2022-08-18T12:35:50.866Z,13.80
2022-08-18T12:36:50.834Z,14.80
2022-08-18T12:38:52.035Z,17.50
2022-08-18T12:39:51.681Z,17.80
2022-08-18T12:40:50.589Z,18.10
2022-08-18T12:41:50.511Z,15.30
2022-08-18T12:42:50.533Z,11.20
2022-08-18T12:43:58.687Z,17.50
2022-08-18T12:44:51.150Z,17.80
2022-08-18T12:45:50.096Z,14.70
2022-08-18T12:46:50.080Z,11.90
2022-08-18T12:47:49.910Z,18.30
2022-08-18T12:48:49.868Z,14.70
2022-08-18T12:49:50.796Z,16.10
2022-08-18T12:50:58.673Z,15.60
2022-08-18T12:51:50.739Z,12.80
2022-08-18T12:52:49.492Z,11.30
2022-08-18T12:53:58.276Z,18.40
2022-08-18T12:54:55.667Z,13.60
2022-08-18T12:55:50.115Z,14.90
2022-08-18T12:56:49.085Z,14.60
2022-08-18T12:58:49.920Z,21.70
2022-08-18T12:59:48.862Z,15.00
2022-08-18T13:00:48.865Z,10.80